sensor_id;sensor_type;location;lat;lon;timestamp;P1;durP1;ratioP1;P2;durP2;ratioP2
42092;SDS011;28974;50.316;18.960;2023-05-07T00:03:31;53.42;;;24.17;;
42092;SDS011;28974;50.316;18.960;2023-05-07T00:15:31;51.28;;;22.17;;
42092;SDS011;28974;50.316;18.960;2023-05-07T00:27:32;47.00;;;19.67;;
42092;SDS011;28974;50.316;18.960;2023-05-07T00:39:33;48.13;;;20.40;;
42092;SDS011;28974;50.316;18.960;2023-05-07T00:51:33;32.78;;;17.17;;
42092;SDS011;28974;50.316;18.960;2023-05-07T01:03:33;38.50;;;16.10;;
42092;SDS011;28974;50.316;18.960;2023-05-07T01:15:34;36.47;;;15.93;;
42092;SDS011;28974;50.316;18.960;2023-05-07T01:27:34;31.38;;;15.05;;
42092;SDS011;28974;50.316;18.960;2023-05-07T01:39:37;27.40;;;12.60;;
42092;SDS011;28974;50.316;18.960;2023-05-07T01:51:39;29.63;;;13.80;;
42092;SDS011;28974;50.316;18.960;2023-05-07T02:03:40;28.25;;;12.93;;
42092;SDS011;28974;50.316;18.960;2023-05-07T02:27:50;22.95;;;9.73;;
42092;SDS011;28974;50.316;18.960;2023-05-07T02:39:51;17.20;;;8.07;;
42092;SDS011;28974;50.316;18.960;2023-05-07T02:51:52;8.63;;;5.68;;
42092;SDS011;28974;50.316;18.960;2023-05-07T03:03:57;9.77;;;5.95;;
42092;SDS011;28974;50.316;18.960;2023-05-07T03:15:57;10.13;;;5.80;;
42092;SDS011;28974;50.316;18.960;2023-05-07T03:27:58;10.82;;;4.93;;
42092;SDS011;28974;50.316;18.960;2023-05-07T03:40:05;10.48;;;5.18;;
42092;SDS011;28974;50.316;18.960;2023-05-07T03:52:15;10.50;;;6.10;;
42092;SDS011;28974;50.316;18.960;2023-05-07T04:04:15;12.23;;;5.13;;
42092;SDS011;28974;50.316;18.960;2023-05-07T04:16:16;8.63;;;4.32;;
42092;SDS011;28974;50.316;18.960;2023-05-07T04:28:17;9.38;;;5.20;;
42092;SDS011;28974;50.316;18.960;2023-05-07T04:40:17;14.00;;;6.15;;
42092;SDS011;28974;50.316;18.960;2023-05-07T04:52:18;7.55;;;5.28;;
42092;SDS011;28974;50.316;18.960;2023-05-07T05:04:20;7.55;;;4.32;;
42092;SDS011;28974;50.316;18.960;2023-05-07T05:16:21;17.02;;;5.50;;
42092;SDS011;28974;50.316;18.960;2023-05-07T05:28:23;13.68;;;5.90;;
42092;SDS011;28974;50.316;18.960;2023-05-07T05:40:23;8.30;;;3.95;;
42092;SDS011;28974;50.316;18.960;2023-05-07T05:52:24;7.53;;;4.97;;
42092;SDS011;28974;50.316;18.960;2023-05-07T06:04:25;9.00;;;4.22;;
42092;SDS011;28974;50.316;18.960;2023-05-07T06:16:26;10.30;;;4.63;;
42092;SDS011;28974;50.316;18.960;2023-05-07T06:28:27;10.50;;;4.97;;
42092;SDS011;28974;50.316;18.960;2023-05-07T06:40:28;11.68;;;5.70;;
42092;SDS011;28974;50.316;18.960;2023-05-07T06:52:30;8.75;;;4.85;;
42092;SDS011;28974;50.316;18.960;2023-05-07T07:04:31;8.80;;;4.55;;
42092;SDS011;28974;50.316;18.960;2023-05-07T07:16:37;6.95;;;3.47;;
42092;SDS011;28974;50.316;18.960;2023-05-07T07:28:44;4.40;;;3.05;;
42092;SDS011;28974;50.316;18.960;2023-05-07T07:40:47;6.78;;;3.20;;
42092;SDS011;28974;50.316;18.960;2023-05-07T07:52:48;8.48;;;3.65;;
42092;SDS011;28974;50.316;18.960;2023-05-07T08:04:50;9.88;;;2.85;;
42092;SDS011;28974;50.316;18.960;2023-05-07T08:16:51;6.75;;;4.07;;
42092;SDS011;28974;50.316;18.960;2023-05-07T08:28:52;6.85;;;4.40;;
42092;SDS011;28974;50.316;18.960;2023-05-07T08:40:53;10.90;;;6.28;;
42092;SDS011;28974;50.316;18.960;2023-05-07T08:52:55;10.70;;;5.65;;
42092;SDS011;28974;50.316;18.960;2023-05-07T09:04:57;11.95;;;5.70;;
42092;SDS011;28974;50.316;18.960;2023-05-07T09:16:57;9.25;;;4.93;;
42092;SDS011;28974;50.316;18.960;2023-05-07T09:28:58;8.63;;;5.85;;
42092;SDS011;28974;50.316;18.960;2023-05-07T09:41:06;8.55;;;5.72;;
42092;SDS011;28974;50.316;18.960;2023-05-07T09:53:12;12.80;;;6.30;;
42092;SDS011;28974;50.316;18.960;2023-05-07T10:05:14;9.43;;;5.85;;
42092;SDS011;28974;50.316;18.960;2023-05-07T10:17:15;23.17;;;6.55;;
42092;SDS011;28974;50.316;18.960;2023-05-07T10:41:18;14.60;;;6.17;;
42092;SDS011;28974;50.316;18.960;2023-05-07T10:53:20;6.25;;;4.70;;
42092;SDS011;28974;50.316;18.960;2023-05-07T11:05:31;9.18;;;5.93;;
42092;SDS011;28974;50.316;18.960;2023-05-07T11:17:54;11.25;;;5.25;;
42092;SDS011;28974;50.316;18.960;2023-05-07T11:29:56;12.25;;;5.72;;
42092;SDS011;28974;50.316;18.960;2023-05-07T11:41:57;13.20;;;6.85;;
42092;SDS011;28974;50.316;18.960;2023-05-07T11:53:58;10.20;;;6.38;;
42092;SDS011;28974;50.316;18.960;2023-05-07T12:05:59;7.85;;;5.10;;
42092;SDS011;28974;50.316;18.960;2023-05-07T12:18:00;9.05;;;5.68;;
42092;SDS011;28974;50.316;18.960;2023-05-07T12:30:00;11.80;;;6.63;;
42092;SDS011;28974;50.316;18.960;2023-05-07T12:42:00;10.45;;;6.00;;
42092;SDS011;28974;50.316;18.960;2023-05-07T12:54:01;12.98;;;5.68;;
42092;SDS011;28974;50.316;18.960;2023-05-07T13:06:05;10.05;;;5.70;;
42092;SDS011;28974;50.316;18.960;2023-05-07T13:18:05;13.23;;;5.53;;
42092;SDS011;28974;50.316;18.960;2023-05-07T13:30:06;10.13;;;5.20;;
42092;SDS011;28974;50.316;18.960;2023-05-07T13:42:07;9.75;;;5.22;;
42092;SDS011;28974;50.316;18.960;2023-05-07T13:54:07;8.75;;;4.68;;
42092;SDS011;28974;50.316;18.960;2023-05-07T14:06:08;11.27;;;5.85;;
42092;SDS011;28974;50.316;18.960;2023-05-07T14:18:08;10.85;;;5.85;;
42092;SDS011;28974;50.316;18.960;2023-05-07T14:30:09;10.93;;;6.30;;
42092;SDS011;28974;50.316;18.960;2023-05-07T14:42:09;14.07;;;7.72;;
42092;SDS011;28974;50.316;18.960;2023-05-07T14:54:10;12.15;;;6.07;;
42092;SDS011;28974;50.316;18.960;2023-05-07T15:06:10;10.75;;;6.30;;
42092;SDS011;28974;50.316;18.960;2023-05-07T15:18:10;16.52;;;8.32;;
42092;SDS011;28974;50.316;18.960;2023-05-07T15:30:11;20.70;;;9.75;;
42092;SDS011;28974;50.316;18.960;2023-05-07T15:42:12;21.35;;;8.68;;
42092;SDS011;28974;50.316;18.960;2023-05-07T15:54:12;21.10;;;9.95;;
42092;SDS011;28974;50.316;18.960;2023-05-07T16:06:13;17.98;;;8.80;;
42092;SDS011;28974;50.316;18.960;2023-05-07T16:18:13;18.02;;;9.05;;
42092;SDS011;28974;50.316;18.960;2023-05-07T16:30:17;15.40;;;8.85;;
42092;SDS011;28974;50.316;18.960;2023-05-07T16:42:17;17.90;;;9.88;;
42092;SDS011;28974;50.316;18.960;2023-05-07T16:54:18;22.85;;;11.63;;
42092;SDS011;28974;50.316;18.960;2023-05-07T17:06:18;19.05;;;10.65;;
42092;SDS011;28974;50.316;18.960;2023-05-07T17:18:18;22.98;;;9.40;;
42092;SDS011;28974;50.316;18.960;2023-05-07T17:30:19;18.50;;;10.05;;
42092;SDS011;28974;50.316;18.960;2023-05-07T17:42:19;20.63;;;10.05;;
42092;SDS011;28974;50.316;18.960;2023-05-07T17:54:20;22.05;;;10.43;;
42092;SDS011;28974;50.316;18.960;2023-05-07T18:06:21;16.63;;;8.70;;
42092;SDS011;28974;50.316;18.960;2023-05-07T18:18:22;23.63;;;11.38;;
42092;SDS011;28974;50.316;18.960;2023-05-07T18:30:25;25.63;;;10.10;;
42092;SDS011;28974;50.316;18.960;2023-05-07T18:42:25;27.10;;;10.85;;
42092;SDS011;28974;50.316;18.960;2023-05-07T18:54:27;18.60;;;9.48;;
42092;SDS011;28974;50.316;18.960;2023-05-07T19:06:28;26.95;;;11.93;;
42092;SDS011;28974;50.316;18.960;2023-05-07T19:18:28;23.17;;;10.88;;
42092;SDS011;28974;50.316;18.960;2023-05-07T19:30:30;20.70;;;9.57;;
42092;SDS011;28974;50.316;18.960;2023-05-07T19:42:31;19.70;;;8.00;;
42092;SDS011;28974;50.316;18.960;2023-05-07T19:54:32;16.15;;;9.20;;
42092;SDS011;28974;50.316;18.960;2023-05-07T20:06:32;17.20;;;7.53;;
42092;SDS011;28974;50.316;18.960;2023-05-07T20:18:32;14.18;;;7.05;;
42092;SDS011;28974;50.316;18.960;2023-05-07T20:30:33;14.63;;;6.78;;
42092;SDS011;28974;50.316;18.960;2023-05-07T20:42:33;13.23;;;7.00;;
42092;SDS011;28974;50.316;18.960;2023-05-07T20:54:35;12.82;;;6.97;;
42092;SDS011;28974;50.316;18.960;2023-05-07T21:06:39;14.63;;;7.30;;
42092;SDS011;28974;50.316;18.960;2023-05-07T21:18:39;10.13;;;6.60;;
42092;SDS011;28974;50.316;18.960;2023-05-07T21:30:40;15.30;;;7.05;;
42092;SDS011;28974;50.316;18.960;2023-05-07T21:42:41;18.15;;;9.40;;
42092;SDS011;28974;50.316;18.960;2023-05-07T21:54:41;16.15;;;8.98;;
42092;SDS011;28974;50.316;18.960;2023-05-07T22:06:42;13.68;;;7.80;;
42092;SDS011;28974;50.316;18.960;2023-05-07T22:18:42;14.88;;;8.00;;
42092;SDS011;28974;50.316;18.960;2023-05-07T22:30:43;17.30;;;9.27;;
42092;SDS011;28974;50.316;18.960;2023-05-07T22:42:43;15.75;;;8.77;;
42092;SDS011;28974;50.316;18.960;2023-05-07T22:54:44;14.52;;;7.80;;
42092;SDS011;28974;50.316;18.960;2023-05-07T23:06:44;18.40;;;8.45;;
42092;SDS011;28974;50.316;18.960;2023-05-07T23:18:45;18.13;;;8.27;;
42092;SDS011;28974;50.316;18.960;2023-05-07T23:30:45;20.25;;;9.50;;
42092;SDS011;28974;50.316;18.960;2023-05-07T23:42:46;16.52;;;9.55;;
42092;SDS011;28974;50.316;18.960;2023-05-07T23:54:46;10.70;;;6.32;;
